CheckWX is a tool to help pilots better visualize weather data.  It is not intended as a substitute for an official pre-flight weather briefing.

18:29:10 UTC

KPOU TAF
Hudson Valley Regional Airport
Poughkeepsie, New York, USA
KPOU 201737Z 2018/2118 00000KT P6SM SKC FM210600 00000KT P6SM VCSH BKN100 PROB30 2108/2112 4SM -TSRA OVC040CB FM211200 19005KT P6SM BKN040 FM211700 17005KT P6SM VCSH SCT045

Aug-20@
18:00 UTC

Aug-20 @ 18:00 UTC

Aug-21@
06:00 UTC

Aug-21 @ 06:00 UTC

KPOU 201737Z 2018/2118 00000KT P6SM SKC
Cloud Levels
  • Clear skies

Aug-21@
06:00 UTC

Aug-21 @ 06:00 UTC

Aug-21@
12:00 UTC

Aug-21 @ 12:00 UTC

FM210600 00000KT P6SM VCSH BKN100

From

From Standard forecast or significant change

Cloud Levels
  • Broken at 10,000' AGL

Aug-21@
08:00 UTC

Aug-21 @ 08:00 UTC

Aug-21@
12:00 UTC

Aug-21 @ 12:00 UTC

PROB30 2108/2112 4SM -TSRA OVC040CB

Probable - 30% Likelihood

Probable - 30% Likelihood during this time.

Conditions
Light Thunderstorm, Light Rain
Cloud Levels
  • Overcast at 4,000' AGL

Aug-21@
12:00 UTC

Aug-21 @ 12:00 UTC

Aug-21@
17:00 UTC

Aug-21 @ 17:00 UTC

FM211200 19005KT P6SM BKN040

From

From Standard forecast or significant change

Wind
  • 190° at 5 KTS
Cloud Levels
  • Broken at 4,000' AGL

Aug-21@
17:00 UTC

Aug-21 @ 17:00 UTC

Aug-21@
18:00 UTC

Aug-21 @ 18:00 UTC

FM211700 17005KT P6SM VCSH SCT045

From

From Standard forecast or significant change

Wind
  • 170° at 5 KTS
Cloud Levels
  • Scattered at 4,500' AGL